CheckWX is a tool to help pilots better visualize weather data.  It is not intended as a substitute for an official pre-flight weather briefing.

05:51:15 UTC

VTSB TAF
Surat Thani Airport
Surat Thani, Thailand
TAF VTSB 220500Z 2206/2306 07010KT 9999 FEW020 BECMG 2216/2218 25003KT BECMG 2302/2304 07010KT

Jan-22@
06:00 UTC

Jan-22 @ 06:00 UTC

Jan-22@
16:00 UTC

Jan-22 @ 16:00 UTC

TAF VTSB 220500Z 2206/2306 07010KT 9999 FEW020
Wind
  • 070° at 10 KTS
Cloud Levels
  • Few at 2,000' AGL

Jan-22@
16:00 UTC

Jan-22 @ 16:00 UTC

Jan-23@
02:00 UTC

Jan-23 @ 02:00 UTC

BECMG 2216/2218 25003KT

Becoming

Becoming Conditions expected by Wed, Jan 22, 2020 @ 18:00 UTC

Wind
  • 250° at 3 KTS
Cloud Levels
  • Few at 2,000' AGL

Jan-23@
02:00 UTC

Jan-23 @ 02:00 UTC

Jan-23@
06:00 UTC

Jan-23 @ 06:00 UTC

BECMG 2302/2304 07010KT

Becoming

Becoming Conditions expected by Thu, Jan 23, 2020 @ 04:00 UTC

Wind
  • 070° at 10 KTS
Cloud Levels
  • Few at 2,000' AGL